Time;durP1;ratioP1;P1;durP2;ratioP2;P2;SDS_P1;SDS_P2;PMS_P1;PMS_P2;Temp;Humidity;BMP_temperature;BMP_pressure;BME280_temperature;BME280_humidity;BME280_pressure;Samples;Min_cycle;Max_cycle;Signal;HPM_P1;HPM_P2
2024/01/07 00:02:24;;;;;;;16.57;12.93;;;;;;;10.46;58.29;96807.56;5082744;28;20209;-69
2024/01/07 00:04:49;;;;;;;16.20;13.07;;;;;;;10.54;58.37;96809.38;5065255;28;20538;-68
2024/01/07 00:07:15;;;;;;;14.73;11.87;;;;;;;10.53;58.19;96803.34;5058689;28;20284;-69
2024/01/07 00:09:40;;;;;;;16.73;12.37;;;;;;;10.49;58.39;96798.59;5077373;28;20182;-70
2024/01/07 00:12:06;;;;;;;17.47;12.47;;;;;;;10.49;58.20;96807.25;5075063;28;20232;-69
2024/01/07 00:14:31;;;;;;;17.73;12.60;;;;;;;10.47;58.01;96806.59;5074172;28;20934;-68
2024/01/07 00:16:57;;;;;;;15.57;12.50;;;;;;;10.46;58.00;96815.44;5077798;28;20263;-67
2024/01/07 00:19:23;;;;;;;13.80;11.77;;;;;;;10.52;57.84;96806.13;5073604;28;20194;-67
2024/01/07 00:21:49;;;;;;;16.50;12.20;;;;;;;10.48;57.80;96807.44;5076352;28;20213;-68
2024/01/07 00:24:15;;;;;;;17.73;11.70;;;;;;;10.51;57.50;96810.53;5062202;28;20185;-69
2024/01/07 00:26:40;;;;;;;17.67;12.60;;;;;;;10.44;57.84;96809.56;5082416;28;20480;-68
2024/01/07 00:29:06;;;;;;;16.47;12.80;;;;;;;10.45;57.85;96801.53;5077256;28;20186;-68
2024/01/07 00:31:31;;;;;;;14.87;12.23;;;;;;;10.49;57.66;96809.88;5057743;28;20335;-71
2024/01/07 00:33:57;;;;;;;14.07;11.90;;;;;;;10.54;57.34;96806.78;5047683;28;20605;-69
2024/01/07 00:36:22;;;;;;;13.27;11.20;;;;;;;10.60;57.32;96811.38;5083301;28;20192;-69
2024/01/07 00:38:48;;;;;;;15.90;11.90;;;;;;;10.58;57.11;96805.47;5065789;28;20179;-68
2024/01/07 00:41:13;;;;;;;16.70;12.97;;;;;;;10.55;57.42;96803.19;5070550;28;20706;-67
2024/01/07 00:43:39;;;;;;;15.93;13.30;;;;;;;10.58;57.73;96803.69;5072532;28;20218;-68
2024/01/07 00:46:04;;;;;;;14.67;12.30;;;;;;;10.58;57.52;96808.94;5073645;28;20181;-69
2024/01/07 00:48:29;;;;;;;17.03;12.40;;;;;;;10.58;57.45;96808.09;5069128;28;20593;-70
2024/01/07 00:50:55;;;;;;;14.90;12.00;;;;;;;10.59;57.26;96809.75;5079207;28;20722;-69
2024/01/07 00:53:20;;;;;;;15.60;12.33;;;;;;;10.45;57.47;96801.53;5082164;28;20260;-68
2024/01/07 00:55:46;;;;;;;15.63;12.90;;;;;;;10.45;57.83;96809.38;5068811;28;20186;-67
2024/01/07 00:58:11;;;;;;;17.30;12.47;;;;;;;10.40;58.03;96809.03;5056602;28;20201;-68
2024/01/07 01:00:37;;;;;;;13.90;11.77;;;;;;;10.47;57.42;96817.06;5064746;28;20284;-67
2024/01/07 01:03:02;;;;;;;15.17;11.83;;;;;;;10.46;57.95;96815.44;5080108;28;20206;-70
2024/01/07 01:05:28;;;;;;;17.37;12.67;;;;;;;10.49;58.23;96815.13;5084837;28;20185;-70
2024/01/07 01:07:53;;;;;;;14.37;12.23;;;;;;;10.47;58.05;96813.66;5056007;28;20675;-69
2024/01/07 01:10:19;;;;;;;15.77;12.20;;;;;;;10.45;58.05;96813.81;5066538;28;20212;-68
2024/01/07 01:12:45;;;;;;;17.07;13.60;;;;;;;10.51;58.15;96818.41;5059073;28;20297;-69
2024/01/07 01:15:11;;;;;;;15.47;13.00;;;;;;;10.50;58.04;96816.75;5073683;28;20527;-68
2024/01/07 01:17:36;;;;;;;16.87;13.33;;;;;;;10.48;57.99;96821.34;5084578;28;20190;-69
2024/01/07 01:20:02;;;;;;;18.70;13.00;;;;;;;10.52;58.01;96825.28;5078866;28;20720;-69
2024/01/07 01:22:27;;;;;;;17.20;13.00;;;;;;;10.47;57.91;96821.50;5059470;28;20349;-69
2024/01/07 01:24:53;;;;;;;17.53;14.27;;;;;;;10.46;58.28;96823.28;5076669;28;20185;-70
2024/01/07 01:27:19;;;;;;;22.70;14.40;;;;;;;10.47;58.25;96826.75;5069445;28;20857;-69
2024/01/07 01:29:44;;;;;;;19.10;13.80;;;;;;;10.43;57.87;96831.50;5081839;28;20178;-69
2024/01/07 01:32:10;;;;;;;19.73;12.93;;;;;;;10.41;58.21;96826.41;5080166;28;20202;-70
2024/01/07 01:34:36;;;;;;;23.90;13.30;;;;;;;10.39;58.74;96824.94;5083837;28;20588;-69
2024/01/07 01:37:01;;;;;;;21.30;15.20;;;;;;;10.42;58.54;96830.66;5082527;28;20182;-69
2024/01/07 01:39:28;;;;;;;20.43;14.27;;;;;;;10.45;58.81;96834.78;5035378;28;20444;-71
2024/01/07 01:41:53;;;;;;;20.83;14.10;;;;;;;10.46;58.61;96833.78;5082530;28;20290;-69
2024/01/07 01:44:19;;;;;;;18.23;13.03;;;;;;;10.39;58.60;96827.56;5077574;28;20460;-69
2024/01/07 01:46:45;;;;;;;21.50;14.80;;;;;;;10.33;58.74;96838.66;5080636;28;20197;-68
2024/01/07 01:49:11;;;;;;;21.67;14.97;;;;;;;10.33;59.10;96830.78;5058690;28;20738;-68
2024/01/07 01:51:37;;;;;;;24.50;14.90;;;;;;;10.32;59.15;96837.00;5043661;28;20479;-70
2024/01/07 01:54:02;;;;;;;20.33;13.33;;;;;;;10.38;59.33;96833.75;5048431;28;20186;-68
2024/01/07 01:56:28;;;;;;;19.77;13.77;;;;;;;10.36;58.98;96833.06;5057270;28;20218;-69
2024/01/07 01:58:55;;;;;;;21.60;14.97;;;;;;;10.32;59.21;96834.38;5053563;28;20278;-69
2024/01/07 02:01:21;;;;;;;24.20;14.37;;;;;;;10.28;59.36;96839.09;5079176;28;20474;-68
2024/01/07 02:03:46;;;;;;;24.23;15.30;;;;;;;10.26;59.08;96839.28;5082577;28;20456;-67
2024/01/07 02:06:12;;;;;;;26.33;15.60;;;;;;;10.19;59.28;96846.13;5071592;28;20509;-68
2024/01/07 02:08:38;;;;;;;19.97;13.70;;;;;;;10.14;59.73;96835.31;5057246;28;20560;-69
2024/01/07 02:11:20;;;;;;;25.27;15.33;;;;;;;10.13;59.69;96836.28;5065245;28;20629;-69
2024/01/07 02:13:46;;;;;;;25.07;14.80;;;;;;;10.15;59.89;96840.38;5076410;28;20424;-69
2024/01/07 02:16:12;;;;;;;23.00;14.53;;;;;;;10.22;59.73;96839.75;5078030;28;20970;-69
2024/01/07 02:18:45;;;;;;;21.13;14.57;;;;;;;10.22;59.94;96839.75;5071173;28;20678;-70
2024/01/07 02:21:10;;;;;;;23.17;14.97;;;;;;;10.18;59.88;96831.41;5066034;28;20198;-68
2024/01/07 02:23:36;;;;;;;21.30;14.20;;;;;;;10.20;59.39;96834.69;5076109;28;20706;-68
2024/01/07 02:26:02;;;;;;;21.17;14.90;;;;;;;10.15;59.51;96834.34;5070100;28;20189;-67
2024/01/07 02:28:28;;;;;;;23.07;15.33;;;;;;;10.19;59.54;96835.66;5055552;28;20265;-71
2024/01/07 02:30:53;;;;;;;28.53;14.80;;;;;;;10.24;59.77;96838.59;5084347;28;20727;-70
2024/01/07 02:33:19;;;;;;;22.57;15.27;;;;;;;10.16;59.54;96841.22;5060675;28;20451;-68
2024/01/07 02:35:44;;;;;;;22.83;15.00;;;;;;;10.25;59.52;96839.44;5078562;28;20303;-68
2024/01/07 02:38:09;;;;;;;24.33;15.90;;;;;;;10.27;59.46;96837.50;5073315;28;20282;-67
2024/01/07 02:40:35;;;;;;;26.60;15.90;;;;;;;10.26;59.31;96841.91;5073105;28;20214;-69
2024/01/07 02:43:00;;;;;;;26.10;15.67;;;;;;;10.24;59.58;96833.38;5064980;28;20217;-67
2024/01/07 02:45:26;;;;;;;26.77;17.43;;;;;;;10.21;59.65;96832.88;5076989;28;20232;-66
2024/01/07 02:47:51;;;;;;;25.13;16.13;;;;;;;10.21;59.45;96838.91;5055829;28;20186;-67
2024/01/07 02:50:17;;;;;;;23.00;16.33;;;;;;;10.18;59.37;96830.56;5087322;28;20268;-67
2024/01/07 02:52:42;;;;;;;22.93;15.70;;;;;;;10.12;59.47;96837.25;5072475;28;20213;-67
2024/01/07 02:55:08;;;;;;;21.77;15.80;;;;;;;10.14;59.61;96835.31;5082193;28;20170;-69
2024/01/07 02:57:33;;;;;;;25.67;16.70;;;;;;;10.13;60.16;96836.28;5074165;28;20194;-68
2024/01/07 02:59:59;;;;;;;25.40;16.47;;;;;;;10.08;60.14;96835.94;5083249;28;20193;-69
2024/01/07 03:02:24;;;;;;;20.23;15.40;;;;;;;10.10;59.85;96836.59;5085175;28;20289;-70
2024/01/07 03:04:50;;;;;;;23.70;16.40;;;;;;;10.11;60.05;96853.94;5072067;28;20190;-68
2024/01/07 03:07:15;;;;;;;23.47;15.67;;;;;;;10.12;60.07;96835.47;5081961;28;20269;-68
2024/01/07 03:09:41;;;;;;;22.97;15.10;;;;;;;10.11;59.79;96848.72;5059970;28;20675;-68
2024/01/07 03:12:06;;;;;;;19.60;14.50;;;;;;;10.08;60.04;96835.94;5067265;28;20276;-68
2024/01/07 03:14:32;;;;;;;20.83;15.03;;;;;;;10.09;59.92;96845.41;5074568;28;20265;-69
2024/01/07 03:16:57;;;;;;;23.80;15.47;;;;;;;10.07;59.98;96848.22;5072632;28;20194;-68
2024/01/07 03:19:22;;;;;;;24.03;16.13;;;;;;;10.09;59.62;96850.66;5081683;28;20561;-67
2024/01/07 03:21:48;;;;;;;21.90;15.40;;;;;;;10.11;59.80;96852.16;5061406;28;20206;-69
2024/01/07 03:24:14;;;;;;;23.80;16.03;;;;;;;10.08;59.51;96855.09;5089399;28;20227;-68
2024/01/07 03:26:39;;;;;;;21.63;15.67;;;;;;;10.02;59.85;96852.28;5079352;28;20792;-68
2024/01/07 03:29:05;;;;;;;22.13;14.90;;;;;;;10.02;59.69;96852.28;5077906;28;20182;-67
2024/01/07 03:31:30;;;;;;;22.67;14.87;;;;;;;10.08;59.98;96849.03;5058253;28;20752;-67
2024/01/07 03:33:56;;;;;;;23.70;15.37;;;;;;;10.05;59.68;96851.97;5079982;28;20273;-70
2024/01/07 03:36:21;;;;;;;20.57;14.67;;;;;;;10.07;59.84;96852.63;5086164;28;20246;-68
2024/01/07 03:38:47;;;;;;;18.20;14.07;;;;;;;9.98;59.66;96855.22;5072124;28;20198;-67
2024/01/07 03:41:17;;;;;;;20.47;15.30;;;;;;;9.93;59.59;96859.28;5063901;28;20197;-67
2024/01/07 03:43:43;;;;;;;19.27;14.53;;;;;;;9.98;59.55;96857.00;5074537;28;20216;-69
2024/01/07 03:46:08;;;;;;;26.67;15.20;;;;;;;9.97;59.77;96860.59;5072266;28;20511;-68
2024/01/07 03:48:34;;;;;;;21.53;14.63;;;;;;;9.96;60.04;96857.16;5072846;28;20341;-69
2024/01/07 03:50:59;;;;;;;19.40;14.23;;;;;;;9.96;59.62;96859.78;5078758;28;20245;-69
2024/01/07 03:53:24;;;;;;;19.60;14.97;;;;;;;9.92;59.85;96863.69;5067181;28;20249;-67
2024/01/07 03:55:50;;;;;;;22.27;14.63;;;;;;;9.94;60.04;96858.28;5074668;28;20190;-69
2024/01/07 03:58:15;;;;;;;19.50;14.50;;;;;;;9.84;59.58;96864.47;5078024;28;20306;-66
2024/01/07 04:00:41;;;;;;;19.03;14.63;;;;;;;9.87;59.67;96863.34;5073842;28;20215;-69
2024/01/07 04:03:06;;;;;;;22.33;13.53;;;;;;;9.85;59.38;96867.91;5087162;28;20639;-68
2024/01/07 04:05:33;;;;;;;20.30;14.63;;;;;;;9.87;59.31;96863.34;5027349;28;20183;-67
2024/01/07 04:08:01;;;;;;;23.67;14.47;;;;;;;9.86;59.43;96874.78;5053789;28;20193;-67
2024/01/07 04:10:26;;;;;;;21.90;14.40;;;;;;;9.76;59.72;96871.47;5064577;28;20432;-69
2024/01/07 04:12:51;;;;;;;24.23;15.17;;;;;;;9.82;59.68;96876.09;5074590;28;20533;-69
2024/01/07 04:15:17;;;;;;;24.47;14.60;;;;;;;9.77;59.86;96873.09;5056533;28;20269;-70
2024/01/07 04:17:42;;;;;;;20.40;13.77;;;;;;;9.78;59.96;96875.56;5074436;28;20194;-70
2024/01/07 04:20:08;;;;;;;19.70;13.93;;;;;;;9.78;59.45;96877.38;5037867;28;25068;-70
2024/01/07 04:22:33;;;;;;;22.60;13.87;;;;;;;9.72;59.50;96875.34;5053607;28;20303;-70
2024/01/07 04:24:59;;;;;;;17.57;13.50;;;;;;;9.70;59.49;96875.50;5047846;28;20198;-70
2024/01/07 04:27:25;;;;;;;19.63;13.50;;;;;;;9.74;59.22;96878.63;5068752;28;20269;-69
2024/01/07 04:29:50;;;;;;;19.27;13.03;;;;;;;9.67;59.54;96884.50;5040810;28;20277;-68
2024/01/07 04:32:16;;;;;;;20.17;13.80;;;;;;;9.71;59.80;96881.56;5060372;28;20722;-66
2024/01/07 04:34:41;;;;;;;20.20;13.27;;;;;;;9.71;59.76;96884.16;5070765;28;20191;-68
2024/01/07 04:37:07;;;;;;;22.10;14.60;;;;;;;9.73;59.86;96892.69;5039434;28;20186;-69
2024/01/07 04:39:32;;;;;;;19.63;13.90;;;;;;;9.71;59.35;96892.03;5057186;28;20186;-68
2024/01/07 04:41:58;;;;;;;19.23;13.43;;;;;;;9.77;59.34;96897.47;5070102;28;20261;-69
2024/01/07 04:44:23;;;;;;;17.50;13.50;;;;;;;9.71;59.43;96892.03;5031731;28;20210;-68
2024/01/07 04:46:49;;;;;;;19.10;14.07;;;;;;;9.75;59.53;96901.22;5060818;28;20253;-69
2024/01/07 04:49:15;;;;;;;20.90;13.50;;;;;;;9.78;59.70;96900.91;5074309;28;20185;-69
2024/01/07 04:51:40;;;;;;;19.00;13.33;;;;;;;9.80;59.32;96898.97;5067599;28;20439;-67
2024/01/07 04:54:05;;;;;;;20.70;13.83;;;;;;;9.79;59.15;96897.31;5073279;28;20777;-67
2024/01/07 04:56:32;;;;;;;18.53;13.27;;;;;;;9.82;59.28;96904.88;5069633;28;20194;-67
2024/01/07 04:58:57;;;;;;;19.03;13.60;;;;;;;9.80;58.90;96898.97;5046407;28;20244;-66
2024/01/07 05:01:22;;;;;;;18.00;13.23;;;;;;;9.79;59.13;96899.94;5059448;28;20444;-68
2024/01/07 05:03:48;;;;;;;18.37;13.27;;;;;;;9.72;59.05;96906.75;5069808;28;20213;-68
2024/01/07 05:06:13;;;;;;;20.70;13.80;;;;;;;9.78;59.32;96904.34;5042389;28;20280;-68
2024/01/07 05:08:40;;;;;;;20.07;13.70;;;;;;;9.79;59.05;96903.38;5079090;28;20239;-68
2024/01/07 05:11:06;;;;;;;14.90;11.70;;;;;;;9.84;59.21;96911.59;5065912;28;20203;-68
2024/01/07 05:13:32;;;;;;;20.17;13.30;;;;;;;9.79;59.06;96910.41;5072340;28;20411;-69
2024/01/07 05:15:57;;;;;;;17.27;12.33;;;;;;;9.79;59.10;96913.03;5069310;28;20193;-66
2024/01/07 05:18:23;;;;;;;19.03;13.20;;;;;;;9.78;59.42;96921.84;5072080;28;20521;-69
2024/01/07 05:20:49;;;;;;;16.87;12.37;;;;;;;9.80;59.47;96917.28;5062783;28;20221;-68
2024/01/07 05:23:14;;;;;;;19.53;12.77;;;;;;;9.71;59.40;96916.41;5044463;28;20456;-68
2024/01/07 05:25:42;;;;;;;16.00;11.90;;;;;;;9.77;59.60;96917.59;5074018;28;20969;-69
2024/01/07 05:28:07;;;;;;;18.03;12.43;;;;;;;9.70;59.08;96922.63;5067265;28;20183;-69
2024/01/07 05:30:33;;;;;;;20.13;12.77;;;;;;;9.76;59.28;96922.03;5072259;28;21049;-69
2024/01/07 05:32:58;;;;;;;16.40;12.10;;;;;;;9.73;59.13;96924.09;5052529;28;20626;-68
2024/01/07 05:35:24;;;;;;;19.07;11.80;;;;;;;9.74;59.15;96923.13;5047348;28;20604;-69
2024/01/07 05:37:49;;;;;;;16.80;12.37;;;;;;;9.76;58.99;96926.41;5066888;28;20206;-68
2024/01/07 05:40:14;;;;;;;14.97;11.27;;;;;;;9.75;59.20;96922.16;5074892;28;20261;-68
2024/01/07 05:42:40;;;;;;;23.83;12.70;;;;;;;9.74;59.23;96925.75;5042646;28;20205;-69
2024/01/07 05:45:06;;;;;;;17.47;11.90;;;;;;;9.75;59.26;96927.38;5054252;28;20602;-70
2024/01/07 05:47:31;;;;;;;16.67;12.23;;;;;;;9.72;59.47;96925.91;5041132;28;20289;-68
2024/01/07 05:49:57;;;;;;;16.00;11.80;;;;;;;9.76;59.03;96934.28;5065024;28;20483;-68
2024/01/07 05:52:22;;;;;;;16.20;12.17;;;;;;;9.77;59.27;96935.91;5069751;28;20201;-67
2024/01/07 05:54:48;;;;;;;16.43;12.13;;;;;;;9.76;59.20;96939.50;5060119;28;20194;-68
2024/01/07 05:57:13;;;;;;;21.77;12.93;;;;;;;9.80;59.22;96936.41;5068301;28;20191;-69
2024/01/07 05:59:39;;;;;;;19.47;13.63;;;;;;;9.78;58.79;96948.84;5075676;28;20182;-68
2024/01/07 06:02:04;;;;;;;19.60;12.97;;;;;;;9.69;58.96;96949.75;5056981;28;20218;-67
2024/01/07 06:04:30;;;;;;;18.13;12.30;;;;;;;9.67;59.14;96952.53;5076561;28;20259;-67
2024/01/07 06:06:55;;;;;;;19.53;13.17;;;;;;;9.64;59.25;96955.44;5080309;28;20209;-68
2024/01/07 06:09:21;;;;;;;15.00;11.97;;;;;;;9.52;58.90;96954.06;5091391;28;20216;-69
2024/01/07 06:11:46;;;;;;;16.43;12.17;;;;;;;9.56;58.97;96954.56;5042513;28;20217;-68
2024/01/07 06:14:12;;;;;;;17.10;11.77;;;;;;;9.56;59.18;96960.63;5075678;28;20204;-67
2024/01/07 06:16:37;;;;;;;18.03;12.27;;;;;;;9.53;59.28;96956.50;5077652;28;20295;-68
2024/01/07 06:19:03;;;;;;;18.40;11.97;;;;;;;9.50;59.17;96956.00;5083159;28;20186;-67
2024/01/07 06:21:29;;;;;;;16.80;11.77;;;;;;;9.49;59.35;96954.34;5063827;28;20588;-68
2024/01/07 06:24:01;;;;;;;19.43;11.87;;;;;;;9.47;59.18;96962.34;5092093;28;20705;-67
2024/01/07 06:26:27;;;;;;;15.80;11.77;;;;;;;9.49;58.98;96954.34;5088142;28;20454;-67
2024/01/07 06:28:52;;;;;;;19.53;12.10;;;;;;;9.44;58.95;96961.84;5092350;28;20190;-68
2024/01/07 06:31:17;;;;;;;15.20;11.57;;;;;;;9.52;59.14;96959.28;5072159;28;20210;-68
2024/01/07 06:33:43;;;;;;;14.53;11.47;;;;;;;9.47;58.93;96957.13;5077406;28;20182;-69
2024/01/07 06:36:08;;;;;;;16.67;11.70;;;;;;;9.45;59.39;96968.72;5057358;28;20244;-69
2024/01/07 06:38:34;;;;;;;14.10;10.03;;;;;;;9.37;58.98;96979.94;5045230;28;20265;-68
2024/01/07 06:41:03;;;;;;;15.10;10.90;;;;;;;9.38;59.17;96974.53;5040260;28;20883;-67
2024/01/07 06:43:29;;;;;;;21.03;11.90;;;;;;;9.40;59.04;96986.66;5066007;28;20694;-68
2024/01/07 06:45:54;;;;;;;14.17;11.13;;;;;;;9.43;58.76;96986.34;5060330;28;20457;-68
2024/01/07 06:48:20;;;;;;;15.87;11.97;;;;;;;9.34;59.34;96986.28;5068249;28;20562;-68
2024/01/07 06:50:45;;;;;;;15.30;11.80;;;;;;;9.38;59.14;96994.66;5067028;28;20187;-68
2024/01/07 06:53:10;;;;;;;15.53;10.93;;;;;;;9.32;59.02;96985.63;5075916;28;20595;-68
2024/01/07 06:55:36;;;;;;;14.80;11.80;;;;;;;9.38;58.83;96995.47;5068160;28;20276;-67
2024/01/07 06:58:02;;;;;;;20.53;12.33;;;;;;;9.37;59.00;96993.00;5065056;28;20199;-68
2024/01/07 07:00:27;;;;;;;16.20;11.67;;;;;;;9.31;59.20;96999.66;5077400;28;20560;-67
2024/01/07 07:02:53;;;;;;;14.47;10.90;;;;;;;9.18;59.21;97001.81;5068262;28;20754;-68
2024/01/07 07:05:18;;;;;;;15.97;12.07;;;;;;;9.19;59.34;97006.09;5072160;28;20262;-68
2024/01/07 07:07:45;;;;;;;15.07;11.00;;;;;;;9.12;59.16;97012.84;5056063;28;20225;-70
2024/01/07 07:10:10;;;;;;;17.13;11.80;;;;;;;9.14;58.86;97010.94;5086864;28;20591;-70
2024/01/07 07:12:36;;;;;;;16.30;12.50;;;;;;;9.12;59.13;97024.16;5085635;28;20451;-71
2024/01/07 07:15:01;;;;;;;15.43;11.67;;;;;;;9.12;58.99;97015.47;5060650;28;20200;-71
2024/01/07 07:17:27;;;;;;;16.07;11.30;;;;;;;9.03;59.02;97023.25;5087250;28;20839;-69
2024/01/07 07:19:52;;;;;;;14.60;11.93;;;;;;;9.01;58.83;97025.19;5073213;28;20661;-70
2024/01/07 07:22:17;;;;;;;13.67;11.17;;;;;;;8.98;59.04;97024.66;5081686;28;20293;-70
2024/01/07 07:24:43;;;;;;;15.63;10.80;;;;;;;8.88;58.81;97024.69;5065721;28;20186;-70
2024/01/07 07:27:09;;;;;;;14.97;11.40;;;;;;;8.86;58.86;97031.84;5072811;28;20312;-69
2024/01/07 07:29:34;;;;;;;14.70;10.63;;;;;;;8.89;58.52;97036.81;5077688;28;20288;-70
2024/01/07 07:31:59;;;;;;;17.17;11.77;;;;;;;8.83;58.45;97032.13;5085573;28;20309;-70
2024/01/07 07:34:25;;;;;;;15.00;10.97;;;;;;;8.81;57.75;97039.31;5068556;28;20268;-70
2024/01/07 07:36:51;;;;;;;15.27;10.60;;;;;;;8.86;58.35;97044.91;5075234;28;20186;-70
2024/01/07 07:39:17;;;;;;;15.07;10.30;;;;;;;8.84;57.64;97039.00;5083152;28;20205;-71
2024/01/07 07:41:42;;;;;;;12.37;9.67;;;;;;;8.77;57.67;97057.06;5082311;28;20832;-70
2024/01/07 07:44:08;;;;;;;12.67;9.60;;;;;;;8.74;57.24;97055.56;5080086;28;20278;-69
2024/01/07 07:46:33;;;;;;;11.23;9.40;;;;;;;8.64;57.64;97060.00;5061760;28;20190;-70
2024/01/07 07:48:58;;;;;;;14.37;10.83;;;;;;;8.62;57.30;97064.56;5074803;28;20269;-70
2024/01/07 07:51:24;;;;;;;12.97;10.77;;;;;;;8.60;58.00;97072.56;5081347;28;20437;-69
2024/01/07 07:53:49;;;;;;;12.20;9.40;;;;;;;8.64;58.48;97075.69;5068770;28;20189;-72
2024/01/07 07:56:15;;;;;;;13.00;9.10;;;;;;;8.65;57.87;97072.13;5076954;28;20221;-72
2024/01/07 07:58:40;;;;;;;13.80;9.57;;;;;;;8.71;57.76;97068.91;5078153;28;20210;-69
2024/01/07 08:01:18;;;;;;;14.20;10.13;;;;;;;8.74;57.36;97076.47;5075110;28;20749;-71
2024/01/07 08:03:47;;;;;;;12.70;9.40;;;;;;;8.73;56.78;97068.78;5059911;28;20213;-69
2024/01/07 08:06:12;;;;;;;12.17;9.00;;;;;;;8.65;57.35;97077.34;5074720;28;20497;-70
2024/01/07 08:08:37;;;;;;;11.93;8.80;;;;;;;8.70;57.03;97082.13;5058711;28;20189;-69
2024/01/07 08:11:07;;;;;;;12.40;9.60;;;;;;;8.72;57.01;97077.59;5077145;28;20695;-71
2024/01/07 08:13:35;;;;;;;10.50;7.90;;;;;;;8.71;56.92;97087.22;5040822;28;20182;-70
2024/01/07 08:16:00;;;;;;;10.53;8.23;;;;;;;8.64;56.42;97083.53;5068853;28;20486;-67
2024/01/07 08:18:25;;;;;;;10.03;8.40;;;;;;;8.56;56.93;97086.03;5069793;28;20433;-70
2024/01/07 08:20:51;;;;;;;10.50;8.20;;;;;;;8.59;57.17;97083.13;5052559;28;20264;-69
2024/01/07 08:23:16;;;;;;;11.67;8.70;;;;;;;8.55;56.97;97093.03;5054108;28;20219;-72
2024/01/07 08:25:42;;;;;;;11.33;8.73;;;;;;;8.57;56.49;97091.13;5088537;28;20177;-69
2024/01/07 08:28:07;;;;;;;12.10;8.30;;;;;;;8.57;56.56;97092.88;5075844;28;20182;-69
2024/01/07 08:30:33;;;;;;;11.83;7.77;;;;;;;8.56;56.56;97094.69;5073156;28;20186;-69
2024/01/07 08:33:01;;;;;;;9.97;8.60;;;;;;;8.54;56.51;97095.81;5077382;28;20328;-70
2024/01/07 08:35:29;;;;;;;12.47;10.27;;;;;;;8.50;56.75;97094.44;5080970;28;20266;-69
2024/01/07 08:37:54;;;;;;;14.60;9.83;;;;;;;8.57;56.45;97095.50;5083962;28;20559;-69
2024/01/07 08:40:20;;;;;;;10.77;8.67;;;;;;;8.55;56.58;97100.06;5076238;28;20257;-70
2024/01/07 08:42:45;;;;;;;13.67;9.90;;;;;;;8.54;56.73;97101.03;5069208;28;20294;-68
2024/01/07 08:45:11;;;;;;;11.03;8.70;;;;;;;8.55;56.76;97105.28;5078610;28;20191;-68
2024/01/07 08:47:37;;;;;;;10.80;8.80;;;;;;;8.48;56.29;97107.66;5076871;28;20667;-69
2024/01/07 08:50:03;;;;;;;10.27;7.80;;;;;;;8.45;56.40;97113.91;5073607;28;20456;-68
2024/01/07 08:52:28;;;;;;;9.37;7.57;;;;;;;8.43;56.60;97107.19;5076439;28;20643;-69
2024/01/07 08:54:54;;;;;;;10.70;8.33;;;;;;;8.36;56.54;97117.38;5069644;28;20427;-68
2024/01/07 08:57:20;;;;;;;12.13;8.87;;;;;;;8.35;57.03;97120.97;5071184;28;20189;-70
2024/01/07 08:59:46;;;;;;;11.67;8.40;;;;;;;8.42;56.88;97118.63;5061465;28;20420;-71
2024/01/07 09:02:11;;;;;;;12.43;9.30;;;;;;;8.50;56.67;97125.78;5063608;28;20198;-70
2024/01/07 09:04:37;;;;;;;17.07;11.87;;;;;;;8.51;55.96;97133.47;5071242;28;20262;-70
2024/01/07 09:07:03;;;;;;;22.93;14.87;;;;;;;8.55;56.64;97134.03;5070669;28;20186;-69
2024/01/07 09:09:28;;;;;;;14.97;10.17;;;;;;;8.53;55.79;97138.56;5079626;28;20428;-69
2024/01/07 09:11:56;;;;;;;15.27;11.20;;;;;;;8.56;55.85;97135.69;5083095;28;20284;-70
2024/01/07 09:14:22;;;;;;;12.40;9.30;;;;;;;8.52;55.55;97139.53;5077968;28;20188;-69
2024/01/07 09:16:47;;;;;;;12.30;8.13;;;;;;;8.39;55.49;97145.00;5061302;28;20428;-69
2024/01/07 09:19:12;;;;;;;17.70;12.60;;;;;;;8.44;56.07;97150.66;5069735;28;20273;-68
2024/01/07 09:21:38;;;;;;;14.97;9.40;;;;;;;8.41;55.37;97154.38;5074486;28;20694;-69
2024/01/07 09:24:04;;;;;;;11.97;7.80;;;;;;;8.28;55.44;97159.06;5080228;28;20259;-70
2024/01/07 09:26:30;;;;;;;9.73;7.37;;;;;;;8.30;55.49;97155.34;5083571;28;20317;-70
2024/01/07 09:28:56;;;;;;;7.60;6.30;;;;;;;8.23;54.91;97172.53;5076500;28;20432;-70
2024/01/07 09:31:22;;;;;;;8.47;6.43;;;;;;;7.98;53.92;97169.50;5045157;28;20284;-69
2024/01/07 09:33:47;;;;;;;8.40;6.47;;;;;;;7.95;54.23;97169.78;5079294;28;20519;-69
2024/01/07 09:36:13;;;;;;;13.23;8.33;;;;;;;8.01;53.27;97171.00;5080638;28;20579;-69
2024/01/07 09:38:40;;;;;;;10.87;7.47;;;;;;;7.75;52.98;97166.31;5071120;28;20265;-69
2024/01/07 09:41:05;;;;;;;7.07;5.93;;;;;;;7.81;53.49;97162.34;5073157;28;20636;-69
2024/01/07 09:43:30;;;;;;;7.73;6.17;;;;;;;7.89;53.58;97165.09;5081580;28;20456;-69
2024/01/07 09:45:56;;;;;;;7.80;5.90;;;;;;;7.77;53.89;97169.63;5070811;28;20716;-69
2024/01/07 09:48:22;;;;;;;5.73;5.13;;;;;;;7.73;53.48;97164.81;5049142;28;20247;-69
2024/01/07 09:50:47;;;;;;;7.83;5.50;;;;;;;7.62;53.42;97165.75;5057535;28;20237;-69
2024/01/07 09:53:18;;;;;;;6.07;5.20;;;;;;;7.60;52.69;97168.50;5071915;28;20283;-69
2024/01/07 09:55:56;;;;;;;6.23;4.97;;;;;;;7.66;53.09;97167.13;5045989;28;20530;-70
2024/01/07 09:58:22;;;;;;;5.87;5.03;;;;;;;7.68;53.47;97162.63;5039759;28;20940;-69
2024/01/07 10:00:47;;;;;;;6.90;5.10;;;;;;;7.74;53.31;97164.66;5059911;28;20428;-69
2024/01/07 10:03:13;;;;;;;6.87;5.37;;;;;;;7.68;53.13;97163.41;5067595;28;20214;-68
2024/01/07 10:05:39;;;;;;;6.87;5.70;;;;;;;7.63;52.95;97160.38;5038297;28;20254;-74
2024/01/07 10:08:06;;;;;;;7.23;5.50;;;;;;;7.71;53.53;97156.28;5068290;28;20826;-69
2024/01/07 10:10:32;;;;;;;7.87;5.77;;;;;;;7.67;53.41;97160.97;5073101;28;20249;-68
2024/01/07 10:12:57;;;;;;;5.60;4.93;;;;;;;7.64;53.21;97164.63;5075643;28;20470;-69
2024/01/07 10:15:23;;;;;;;7.80;5.73;;;;;;;7.59;52.84;97160.78;5070149;28;20610;-69
2024/01/07 10:17:48;;;;;;;7.40;5.60;;;;;;;7.50;53.43;97157.19;5065269;28;20206;-70
2024/01/07 10:20:16;;;;;;;7.90;6.50;;;;;;;7.45;53.32;97156.78;5071811;28;20265;-69
2024/01/07 10:22:47;;;;;;;8.70;6.80;;;;;;;7.36;53.68;97159.25;5060090;28;20714;-69
2024/01/07 10:25:14;;;;;;;10.63;6.87;;;;;;;7.43;54.04;97164.75;5069686;28;20516;-69
2024/01/07 10:27:39;;;;;;;8.80;6.83;;;;;;;7.47;53.54;97166.13;5068382;28;20432;-69
2024/01/07 10:30:06;;;;;;;9.83;8.20;;;;;;;7.50;53.42;97163.25;5051456;28;20481;-70
2024/01/07 10:32:31;;;;;;;9.37;7.07;;;;;;;7.52;54.18;97165.72;5062605;28;20679;-68
2024/01/07 10:35:07;;;;;;;9.10;7.23;;;;;;;7.52;53.44;97169.16;5053918;28;20456;-71
2024/01/07 10:37:33;;;;;;;9.10;7.37;;;;;;;7.61;54.04;97175.38;5066293;28;20674;-69
2024/01/07 10:40:03;;;;;;;9.40;7.17;;;;;;;7.57;53.69;97171.38;5046100;28;20436;-69
2024/01/07 10:42:32;;;;;;;10.00;7.20;;;;;;;7.45;53.19;97175.84;5067945;28;20555;-69
2024/01/07 10:44:59;;;;;;;9.53;6.17;;;;;;;7.26;53.06;97175.81;5073747;28;20426;-69
2024/01/07 10:47:29;;;;;;;8.00;5.77;;;;;;;7.26;52.93;97181.03;5049778;28;20550;-69
2024/01/07 10:49:57;;;;;;;8.63;6.77;;;;;;;7.18;52.81;97177.28;5066741;28;20840;-69
2024/01/07 10:52:23;;;;;;;7.67;6.13;;;;;;;7.38;52.99;97182.56;5048102;28;20523;-69
2024/01/07 10:54:49;;;;;;;11.00;7.50;;;;;;;7.30;52.98;97182.41;5072301;28;20420;-69
2024/01/07 10:57:32;;;;;;;9.93;7.40;;;;;;;7.05;53.27;97187.94;5044814;28;20429;-68
2024/01/07 10:59:59;;;;;;;8.13;6.70;;;;;;;7.06;53.01;97186.16;5064761;28;20191;-71
2024/01/07 11:02:24;;;;;;;10.13;7.87;;;;;;;7.13;53.16;97186.44;5064984;28;20446;-70
2024/01/07 11:04:57;;;;;;;10.10;7.10;;;;;;;7.08;53.05;97192.06;5071228;28;20422;-70
2024/01/07 11:07:37;;;;;;;9.07;6.53;;;;;;;6.89;52.69;97198.84;5038731;28;20183;-69
2024/01/07 11:10:19;;;;;;;12.37;7.97;;;;;;;6.81;53.02;97205.66;5058708;28;20515;-68
2024/01/07 11:12:58;;;;;;;8.93;6.90;;;;;;;6.74;52.94;97211.34;5054872;28;20449;-71
2024/01/07 11:15:48;;;;;;;10.17;7.00;;;;;;;6.71;53.01;97201.22;5078673;28;20459;-70
2024/01/07 11:18:18;;;;;;;9.90;7.00;;;;;;;6.72;52.97;97200.25;5075174;28;20431;-70
2024/01/07 11:20:44;;;;;;;9.67;7.47;;;;;;;6.79;53.32;97203.19;5073398;28;20800;-71
2024/01/07 11:23:37;;;;;;;10.83;8.03;;;;;;;6.86;53.21;97198.28;5060624;28;20909;-72